Hlavní strana
METAR-TAF:

METAR-TAF

Letiště :

Augsburg, Německo

zeměpisná šířka: 48-26N, zeměpisná délka: 010-56E, výška: 461 m

Aktuální stav počasí

Zpráva byla vytvořena před 33 minutami, v 03:50 UTC
Severní vítr 2 kt
Teplota 0°C
Vlhkost vzduchu 80%
Tlak 1022 hPa
Viditelnost 10 km a více

METAR: EDMA 210350Z AUTO 01002KT 9999 // NCD M00/M03 Q1022

Čas: 06:23 (04:23 UTC)

Předpověď počasí

Zpráva byla vytvořena před 11 hodinami a 23 minutami, v 17:00 UTC
Předpověď platná od 20 v 18 UTC do 21 v 03 UTC
Východoseverovýchodní vítr 3 kt
Viditelnost 10 km a více
Žádná oblačnost pod 1500 m, nevyskytují se cumulonimby.

TAF: EDMA 201700Z 2018/2103 06003KT CAVOK

Stav a předpovědi počasí z více než 4 000 letišť (zprávy METAR a TAF).

Červené a žluté tečky na mapě představují dostupné meteorologické stanice.

Když kurzor umístíte na tečku, zobrazí se název stanice.

Pak kliknutím zobrazíte stav a předpověď počasí.

Chcete-li změnit mapu, kliknutím na zelené tlačítko se znaménkem +mapu přiblížíte, kliknutím na zelené tlačítko se znaménkem – mapu oddálíte a kliknutím na zelené šipky přejdete na sousední mapy.


METAR-TAF: